ADDS METAR Data INFO
IDs: Format: Raw Decoded Include TAF

Data at: 1733 UTC 18 Jan 2018

METAR for:KCMH (Columbus Intl, OH, US)
Text:KCMH 181651Z 22014G20KT 9SM CLR M06/M13 A3028 RMK AO2 SLP269 T10611128
Temperature: -6.1°C ( 21°F)
Dewpoint:-12.8°C ( 9°F) [RH = 59%]
Pressure (altimeter):30.28 inches Hg (1025.5 mb) [Sea level pressure: 1026.9 mb]
Winds:from the SW (220 degrees) at 16 MPH (14 knots; 7.2 m/s) gusting to 23 MPH (20 knots; 10.3 m/s)
Visibility: 9 sm ( 14 km)
Ceiling:at least 12,000 feet AGL
Clouds:sky clear below 12,000 feet AGL